Latest Weather Observations for Sheffield

IDT60801

Issued at 8:31 am EDT Wednesday 1 April 2015 (issued every 30 minutes, with the page automatically refreshed every 10 minutes)

About weather observations | Map of weather stations | Latest weather observations for TAS | Other Formats
Station Details ID: 091291 Name: SHEFFIELD SCHOOL FARM Lat: -41.39 Lon: 146.32 Height: 294.2 m
Data from the previous 72 hours. | See also: Recent months at Sheffield
Date/Time
EDT
Temp
°C
App
Temp
°C
Dew
Point
Rel
Hum
%
Delta-T
°C
Wind Press
QNH
hPa
Press
MSL
hPa
Rain
since 9 am
mm
Dir
 
Spd
km/h
Gust
km/h
Spd
kts
Gust
kts
01/08:30am 10.2 10.2 9.9 98 0.2 CALM 0 0 0 0 1018.8 1018.5 0.2
01/08:00am 9.4 8.8 9.1 98 0.1 E 2 6 1 3 1018.8 1018.5 0.2
01/07:30am 9.9 9.8 9.6 98 0.2 CALM 0 2 0 1 1019.0 1018.7 0.2
01/07:00am 10.4 9.1 10.1 98 0.2 WSW 7 9 4 5 1019.4 1019.0 0.2
01/06:30am 9.6 8.7 9.3 98 0.2 W 4 6 2 3 1019.6 1019.2 0.2
01/06:00am 9.1 8.1 8.8 98 0.1 NW 4 6 2 3 1019.7 1019.3 0.0
01/05:30am 8.5 8.1 8.1 97 0.2 CALM 0 0 0 0 1019.7 1019.3 0.0
01/05:00am 9.2 8.2 8.7 97 0.2 WNW 4 6 2 3 1020.0 1019.6 0.0
01/04:30am 9.1 8.0 8.6 97 0.2 W 4 4 2 2 1020.3 1019.9 0.0
01/04:00am 9.3 9.0 8.8 97 0.2 CALM 0 4 0 2 1020.7 1020.4 0.0
01/03:30am 8.7 8.3 8.3 97 0.2 CALM 0 0 0 0 1020.9 1020.6 0.0
01/03:00am 8.7 8.3 8.3 97 0.2 CALM 0 0 0 0 1021.3 1021.0 0.0
01/02:30am 8.3 7.8 7.9 97 0.2 CALM 0 0 0 0 1021.7 1021.4 0.0
01/02:00am 8.7 8.3 8.3 97 0.2 CALM 0 0 0 0 1021.8 1021.5 0.0
01/01:30am 9.8 8.5 9.3 97 0.3 SW 6 6 3 3 1022.0 1021.7 0.0
01/01:00am 9.3 8.7 8.8 97 0.2 SE 2 2 1 1 1022.1 1021.8 0.0
01/12:30am 9.3 8.3 8.7 96 0.3 SE 4 6 2 3 1022.4 1022.1 0.0
 
Date/Time
EDT
Temp
°C
App
Temp
°C
Dew
Point
Rel
Hum
%
Delta-T
°C
Wind Press
QNH
hPa
Press
MSL
hPa
Rain
since 9 am
mm
Dir
 
Spd
km/h
Gust
km/h
Spd
kts
Gust
kts
31/11:30pm 10.1 10.0 9.3 95 0.4 CALM 0 2 0 1 1023.0 1022.6 0.0
31/11:00pm 10.4 9.6 9.6 95 0.4 SE 4 6 2 3 1023.0 1022.6 0.0
31/10:30pm 11.3 11.5 10.4 94 0.5 CALM 0 0 0 0 1023.2 1022.8 0.0
31/10:00pm 11.6 11.7 10.3 92 0.7 CALM 0 0 0 0 1023.4 1023.0 0.0
31/09:30pm 11.8 12.0 10.5 92 0.7 CALM 0 0 0 0 1023.3 1022.9 0.0
31/09:00pm 11.9 11.7 10.3 90 0.8 NE 2 4 1 2 1023.0 1022.6 0.0
31/08:30pm 12.2 11.6 10.3 88 1.0 NNE 4 6 2 3 1023.0 1022.6 0.0
31/08:00pm 12.6 12.4 10.5 87 1.1 N 2 4 1 2 1022.9 1022.5 0.0
31/07:30pm 13.0 12.2 10.9 87 1.1 N 6 7 3 4 1022.7 1022.3 0.0
31/07:00pm 13.6 12.8 11.0 84 1.4 N 6 9 3 5 1022.3 1022.0 0.0
31/06:30pm 14.6 12.5 11.0 79 1.9 NNW 13 19 7 10 1022.2 1021.9 0.0
31/06:00pm 15.5 13.3 10.9 74 2.5 NNW 13 17 7 9 1022.1 1021.8 0.0
31/05:30pm 16.9 14.9 11.4 70 3.0 N 13 19 7 10 1021.9 1021.6 0.0
31/05:00pm 17.3 14.9 11.3 68 3.3 N 15 20 8 11 1022.1 1021.8 0.0
31/04:30pm 17.5 15.4 11.1 66 3.5 NNW 13 17 7 9 1022.2 1021.9 0.0
31/04:00pm 17.8 15.5 11.8 68 3.3 N 15 20 8 11 1022.7 1022.3 0.0
31/03:30pm 17.8 15.8 11.6 67 3.4 N 13 17 7 9 1022.8 1022.4 0.0
31/03:00pm 17.6 15.8 10.9 65 3.6 NNW 11 17 6 9 1023.0 1022.6 0.0
31/02:30pm 18.1 17.0 10.5 61 4.1 N 7 11 4 6 1023.3 1022.9 0.0
31/02:00pm 17.7 16.4 9.1 57 4.5 NNW 6 13 3 7 1023.7 1023.4 0.0
31/01:30pm 17.1 15.4 8.5 57 4.5 NNW 7 11 4 6 1024.0 1023.7 0.0
31/01:00pm 17.4 16.6 9.8 61 4.0 NNW 4 13 2 7 1024.3 1024.0 0.0
31/12:30pm 16.2 14.2 8.7 61 3.9 NNW 9 15 5 8 1024.8 1024.5 0.0
31/12:00pm 15.5 13.9 8.7 64 3.5 NNW 7 13 4 7 1025.0 1024.7 0.0
31/11:30am 14.5 12.7 7.1 61 3.7 NNW 6 11 3 6 1025.1 1024.8 0.0
31/11:00am 13.9 12.5 7.2 64 3.3 N 4 11 2 6 1025.2 1024.9 0.0
31/10:30am 12.5 11.4 6.8 68 2.8 W 2 4 1 2 1025.3 1025.0 0.0
31/10:00am 11.9 10.1 7.2 73 2.3 N 6 7 3 4 1025.3 1025.0 0.0
31/09:30am 10.5 8.6 6.8 78 1.8 N 6 6 3 3 1025.4 1025.1 0.0
31/09:00am 8.7 7.4 6.0 83 1.2 NW 2 4 1 2 1025.2 1024.9 0.0
31/08:30am 7.4 6.4 5.7 89 0.8 CALM 0 0 0 0 1024.9 1024.6 0.0
31/08:00am 6.7 5.7 5.5 92 0.5 CALM 0 0 0 0 1024.8 1024.5 0.0
31/07:30am 6.4 5.3 5.0 91 0.6 CALM 0 0 0 0 1024.5 1024.2 0.0
31/07:00am 6.6 5.5 5.2 91 0.6 CALM 0 0 0 0 1024.2 1023.9 0.0
31/06:30am 6.9 5.9 5.5 91 0.6 CALM 0 0 0 0 1023.9 1023.6 0.0
31/06:00am 6.7 5.3 5.3 91 0.6 NW 2 4 1 2 1023.6 1023.3 0.0
31/05:30am 7.0 5.2 5.5 90 0.7 NNW 4 6 2 3 1023.5 1023.1 0.0
31/05:00am 7.2 5.4 5.5 89 0.8 NNW 4 4 2 2 1023.3 1022.9 0.0
31/04:30am 7.4 6.0 5.5 88 0.9 NW 2 4 1 2 1023.4 1023.0 0.0
31/04:00am 7.8 6.1 5.8 87 0.9 W 4 4 2 2 1023.4 1023.0 0.0
31/03:30am 8.1 6.8 5.9 86 1.0 SSW 2 4 1 2 1023.5 1023.1 0.0
31/03:00am 8.3 7.4 5.9 85 1.1 CALM 0 0 0 0 1023.7 1023.4 0.0
31/02:30am 8.2 6.5 5.7 84 1.1 SSW 4 6 2 3 1023.7 1023.4 0.0
31/02:00am 8.8 7.9 6.1 83 1.3 CALM 0 0 0 0 1023.7 1023.4 0.0
31/01:30am 9.3 7.3 6.2 81 1.5 NNW 6 6 3 3 1023.7 1023.4 0.0
31/01:00am 9.6 7.6 6.1 79 1.6 N 6 7 3 4 1023.6 1023.3 0.0
31/12:30am 9.7 7.1 6.1 78 1.7 N 9 11 5 6 1023.5 1023.1 0.0
31/12:00am 10.4 8.2 6.2 75 2.0 N 7 9 4 5 1023.6 1023.3 0.0
 
Date/Time
EDT
Temp
°C
App
Temp
°C
Dew
Point
Rel
Hum
%
Delta-T
°C
Wind Press
QNH
hPa
Press
MSL
hPa
Rain
since 9 am
mm
Dir
 
Spd
km/h
Gust
km/h
Spd
kts
Gust
kts
30/11:30pm 10.8 8.2 6.0 72 2.3 NW 9 13 5 7 1023.5 1023.1 0.0
30/11:00pm 11.2 8.3 6.3 72 2.3 W 11 15 6 8 1023.4 1023.0 0.0
30/10:30pm 11.2 8.3 6.5 73 2.3 W 11 17 6 9 1023.5 1023.1 0.0
30/10:00pm 11.7 8.8 6.6 71 2.4 W 11 20 6 11 1023.6 1023.3 0.0
30/09:30pm 11.1 7.1 6.5 73 2.2 W 17 22 9 12 1023.3 1022.9 0.0
30/09:00pm 12.2 8.5 6.5 68 2.7 W 15 20 8 11 1023.5 1023.1 0.0
30/08:30pm 12.7 8.3 6.7 67 2.9 WSW 19 22 10 12 1023.2 1022.8 0.0
30/08:00pm 13.0 9.0 6.8 66 3.0 WSW 17 24 9 13 1022.9 1022.5 0.0
30/07:30pm 13.5 10.4 7.1 65 3.2 W 13 19 7 10 1022.5 1022.2 0.0
30/07:00pm 14.3 10.3 6.6 60 3.8 W 17 24 9 13 1022.0 1021.7 0.0
30/06:30pm 15.4 11.0 7.2 58 4.1 WSW 20 28 11 15 1021.5 1021.2 0.0
30/06:00pm 16.6 12.9 8.1 57 4.4 WSW 17 24 9 13 1021.2 1020.9 0.0
30/05:30pm 17.1 12.5 8.3 56 4.6 W 22 32 12 17 1020.9 1020.6 0.0
30/05:00pm 17.2 12.5 7.8 54 4.8 WSW 22 30 12 16 1020.6 1020.2 0.0
30/04:30pm 18.1 14.1 8.9 55 4.9 W 20 30 11 16 1020.5 1020.1 0.0
30/04:00pm 17.8 12.8 8.1 53 5.0 WNW 24 35 13 19 1020.6 1020.2 0.0
30/03:30pm 17.9 13.0 8.5 54 4.9 WNW 24 33 13 18 1020.5 1020.1 0.0
30/03:00pm 17.2 13.0 8.1 55 4.7 W 20 33 11 18 1020.6 1020.2 0.0
30/02:30pm 17.2 12.8 9.1 59 4.3 WNW 22 30 12 16 1020.5 1020.1 0.0
30/02:00pm 16.8 12.8 9.2 61 4.0 WNW 20 33 11 18 1020.7 1020.4 0.0
30/01:30pm 18.1 13.5 9.5 57 4.6 WNW 24 33 13 18 1020.5 1020.1 0.0
30/01:00pm 17.7 12.2 9.1 57 4.5 WNW 28 39 15 21 1020.9 1020.6 0.0
30/12:30pm 17.4 12.5 10.1 62 3.9 WNW 26 35 14 19 1020.9 1020.6 0.0
30/12:00pm 17.7 13.0 10.8 64 3.8 WNW 26 37 14 20 1020.9 1020.6 0.0
30/11:30am 17.1 13.0 11.6 70 3.0 NW 24 37 13 20 1021.1 1020.8 0.0
30/11:00am 16.4 12.6 11.1 71 2.9 WNW 22 32 12 17 1021.1 1020.8 0.0
30/10:30am 15.2 12.9 11.6 79 2.0 NW 15 19 8 10 1021.2 1020.9 0.0
30/10:00am 14.2 11.8 11.4 83 1.5 NW 15 20 8 11 1021.0 1020.7 0.0
30/09:30am 14.0 11.2 11.3 84 1.5 NNW 17 22 9 12 1020.6 1020.2 0.0
30/09:00am 13.6 11.5 11.1 85 1.3 NW 13 17 7 9 1020.5 1020.1 0.2
30/08:30am 12.9 10.6 10.6 86 1.2 NW 13 17 7 9 1020.4 1020.0 0.2
30/08:00am 12.2 10.2 10.1 87 1.1 NW 11 13 6 7 1020.3 1019.9 0.2
30/07:30am 11.8 10.3 10.7 93 0.6 NW 9 13 5 7 1020.0 1019.6 0.2
30/07:00am 11.5 10.7 10.9 96 0.3 NNW 6 9 3 5 1019.7 1019.3 0.2
30/06:30am 11.3 9.5 10.7 96 0.3 NNW 11 15 6 8 1019.4 1019.0 0.2
30/06:00am 11.5 9.3 10.7 95 0.4 NNW 13 17 7 9 1019.3 1018.9 0.2
30/05:30am 11.7 10.4 11.1 96 0.3 N 9 13 5 7 1019.2 1018.8 0.2
30/05:00am 12.0 11.1 11.2 95 0.4 NNW 7 9 4 5 1019.3 1018.9 0.2
30/04:30am 12.5 10.9 11.7 95 0.4 NNW 11 15 6 8 1019.4 1019.0 0.2
30/04:00am 12.5 11.0 12.0 97 0.3 NNW 11 19 6 10 1019.3 1018.9 0.2
30/03:30am 12.7 10.9 12.1 96 0.3 NNW 13 15 7 8 1019.5 1019.1 0.2
30/03:00am 12.7 11.3 12.1 96 0.3 NW 11 15 6 8 1019.6 1019.2 0.0
30/02:30am 12.5 11.0 11.9 96 0.3 NNW 11 13 6 7 1019.8 1019.4 0.0
30/02:00am 12.6 10.4 12.0 96 0.3 NNW 15 19 8 10 1019.7 1019.3 0.0
30/01:30am 12.5 10.2 11.7 95 0.4 NNW 15 20 8 11 1019.7 1019.3 0.0
30/01:00am 12.3 10.3 11.4 94 0.5 NNW 13 17 7 9 1019.8 1019.4 0.0
30/12:30am 11.9 10.1 10.8 93 0.6 NNW 11 17 6 9 1019.7 1019.3 0.0
30/12:00am 12.4 10.3 11.1 92 0.7 NNW 13 15 7 8 1019.7 1019.3 0.0
 
Date/Time
EDT
Temp
°C
App
Temp
°C
Dew
Point
Rel
Hum
%
Delta-T
°C
Wind Press
QNH
hPa
Press
MSL
hPa
Rain
since 9 am
mm
Dir
 
Spd
km/h
Gust
km/h
Spd
kts
Gust
kts
29/11:30pm 12.8 10.6 10.9 88 1.0 NW 13 19 7 10 1019.8 1019.4 0.0
29/11:00pm 13.1 10.5 10.8 86 1.2 NW 15 22 8 12 1019.8 1019.4 0.0
29/10:30pm 12.5 10.7 10.7 89 1.0 NW 11 15 6 8 1019.8 1019.4 0.0
29/10:00pm 12.8 10.3 11.0 89 1.0 NW 15 20 8 11 1019.8 1019.4 0.0
29/09:30pm 12.9 10.4 11.1 89 1.0 NW 15 22 8 12 1019.7 1019.3 0.0
29/09:00pm 13.3 10.4 11.0 86 1.2 NW 17 22 9 12 1019.4 1019.0 0.0
29/08:30pm 13.9 11.4 10.9 82 1.6 NW 15 20 8 11 1019.0 1018.7 0.0
29/08:00pm 14.1 11.6 11.1 82 1.6 NW 15 20 8 11 1018.8 1018.5 0.0
29/07:30pm 14.2 11.3 11.0 81 1.7 NW 17 26 9 14 1018.4 1018.1 0.0
29/07:00pm 14.5 11.6 11.1 80 1.8 NW 17 24 9 13 1018.2 1017.9 0.0
29/06:30pm 14.8 11.5 11.0 78 2.0 NW 19 26 10 14 1017.9 1017.6 0.0
29/06:00pm 15.1 11.7 11.1 77 2.2 NW 20 28 11 15 1017.6 1017.2 0.0
29/05:30pm 15.1 11.7 11.3 78 2.1 NW 20 26 11 14 1017.4 1017.0 0.0
29/05:00pm 14.9 11.1 11.1 78 2.0 NW 22 30 12 16 1017.5 1017.1 0.0
29/04:30pm 15.1 11.8 10.9 76 2.3 NW 19 28 10 15 1017.2 1016.8 0.0
29/04:00pm 15.4 11.8 10.4 72 2.7 WNW 20 32 11 17 1017.4 1017.0 0.0
29/03:30pm 15.4 11.7 10.2 71 2.8 NW 20 33 11 18 1017.4 1017.0 0.0
29/03:00pm 15.5 10.9 9.8 69 3.0 WNW 24 35 13 19 1017.4 1017.0 0.0
29/02:30pm 15.6 11.3 9.5 67 3.2 WNW 22 35 12 19 1017.5 1017.1 0.0
29/02:00pm 15.5 12.8 10.3 71 2.8 NW 15 19 8 10 1017.6 1017.2 0.0
29/01:30pm 15.4 13.0 10.2 71 2.8 NW 13 17 7 9 1017.9 1017.6 0.0
29/01:00pm 15.2 11.5 9.6 69 2.9 NW 19 33 10 18 1017.8 1017.5 0.0
29/12:30pm 15.1 11.5 9.9 71 2.7 NW 19 26 10 14 1018.0 1017.7 0.0
29/12:00pm 15.4 11.5 9.3 67 3.2 NW 20 37 11 20 1017.9 1017.6 0.0
29/11:30am 14.2 10.9 9.6 74 2.4 NW 17 24 9 13 1018.1 1017.8 0.0
29/11:00am 13.7 10.1 9.9 78 2.0 NW 19 26 10 14 1018.3 1018.0 0.0
29/10:30am 13.1 9.7 9.2 77 2.0 NW 17 24 9 13 1018.4 1018.1 0.0
29/10:00am 12.4 9.3 8.7 78 1.9 NW 15 24 8 13 1018.4 1018.1 0.0
29/09:30am 12.0 8.9 8.7 80 1.7 NW 15 20 8 11 1018.1 1017.8 0.0
29/09:00am 11.1 7.5 8.3 83 1.4 NW 17 24 9 13 1017.9 1017.6 0.0

Other Formats:

Comma delimited format used in spreadsheet applications
http://www.bom.gov.au/fwo/IDT60801/IDT60801.94955.axf

JavaScript Object Notation format (JSON) in row-major order
http://www.bom.gov.au/fwo/IDT60801/IDT60801.94955.json